createdAt,value
2023-03-29T00:00:41.979Z,8.78
2023-03-29T00:03:14.888Z,8.83
2023-03-29T00:05:48.087Z,8.78
2023-03-29T00:08:22.153Z,8.82
2023-03-29T00:10:57.258Z,8.80
2023-03-29T00:13:30.048Z,8.76
2023-03-29T00:16:03.128Z,8.80
2023-03-29T00:18:35.809Z,8.79
2023-03-29T00:21:09.234Z,8.72
2023-03-29T00:23:44.508Z,8.75
2023-03-29T00:26:17.503Z,8.70
2023-03-29T00:28:50.194Z,8.75
2023-03-29T00:31:23.005Z,8.77
2023-03-29T00:33:55.967Z,8.56
2023-03-29T00:36:28.680Z,8.67
2023-03-29T00:39:03.402Z,8.75
2023-03-29T00:41:36.238Z,8.75
2023-03-29T00:44:42.198Z,8.76
2023-03-29T00:47:15.077Z,8.72
2023-03-29T00:49:50.566Z,8.73
2023-03-29T00:52:23.072Z,8.72
2023-03-29T00:55:01.982Z,8.73
2023-03-29T00:57:35.886Z,8.70
2023-03-29T01:00:11.473Z,8.73
2023-03-29T01:02:46.495Z,8.73
2023-03-29T01:05:24.793Z,8.73
2023-03-29T01:08:01.426Z,8.69
2023-03-29T01:10:40.711Z,8.72
2023-03-29T01:13:19.292Z,8.72
2023-03-29T01:15:53.678Z,8.68
2023-03-29T01:18:26.256Z,8.60
2023-03-29T01:21:20.961Z,8.66
2023-03-29T01:24:18.265Z,8.61
2023-03-29T01:27:03.748Z,8.61
2023-03-29T01:29:43.880Z,8.56
2023-03-29T01:32:22.732Z,8.57
2023-03-29T01:35:00.306Z,8.55
2023-03-29T01:37:38.022Z,8.46
2023-03-29T01:40:12.288Z,8.49
2023-03-29T01:42:49.846Z,8.50
2023-03-29T01:45:28.889Z,8.50
2023-03-29T01:48:09.543Z,8.44
2023-03-29T01:50:46.657Z,8.44
2023-03-29T01:53:25.566Z,8.39
2023-03-29T01:56:05.016Z,8.39
2023-03-29T01:58:41.066Z,8.38
2023-03-29T02:01:20.402Z,8.37
2023-03-29T02:03:56.005Z,8.33
2023-03-29T02:06:33.446Z,8.32
2023-03-29T02:09:07.305Z,8.34
2023-03-29T02:11:43.608Z,8.32
2023-03-29T02:14:17.106Z,8.29
2023-03-29T02:17:19.431Z,8.32
2023-03-29T02:19:55.704Z,8.25
2023-03-29T02:22:34.325Z,8.27
2023-03-29T02:25:09.544Z,8.34
2023-03-29T02:27:46.322Z,8.23
2023-03-29T02:30:21.171Z,8.33
2023-03-29T02:33:02.350Z,8.35
2023-03-29T02:35:38.910Z,8.37
2023-03-29T02:38:12.404Z,8.29
2023-03-29T02:40:47.304Z,8.36
2023-03-29T02:43:25.690Z,8.36
2023-03-29T02:45:59.771Z,8.35
2023-03-29T02:48:37.716Z,8.34
2023-03-29T02:51:18.028Z,8.34
2023-03-29T02:54:00.606Z,8.32
2023-03-29T02:56:43.439Z,8.28
2023-03-29T02:59:18.148Z,8.29
2023-03-29T03:01:52.857Z,8.19
2023-03-29T03:04:28.178Z,8.26
2023-03-29T03:07:01.025Z,8.22
2023-03-29T03:09:33.915Z,8.21
2023-03-29T03:12:07.801Z,8.18
2023-03-29T03:14:40.919Z,8.19
2023-03-29T03:17:14.051Z,8.17
2023-03-29T03:19:47.981Z,8.17
2023-03-29T03:22:21.004Z,8.12
2023-03-29T03:24:53.538Z,8.12
2023-03-29T03:27:26.571Z,8.08
2023-03-29T03:29:58.961Z,8.03
2023-03-29T03:33:10.033Z,8.03
2023-03-29T03:35:57.271Z,8.03
2023-03-29T03:38:31.146Z,8.02
2023-03-29T03:41:07.746Z,7.87
2023-03-29T03:43:43.066Z,8.02
2023-03-29T03:46:17.331Z,7.98
2023-03-29T03:48:51.556Z,7.95
2023-03-29T03:51:35.608Z,7.88
2023-03-29T03:54:08.600Z,7.92
2023-03-29T03:56:41.725Z,7.79
2023-03-29T03:59:37.117Z,7.88
2023-03-29T04:02:15.399Z,7.78
2023-03-29T04:04:49.594Z,7.86
2023-03-29T04:07:28.106Z,7.85
2023-03-29T04:10:39.826Z,7.85
2023-03-29T04:13:24.615Z,7.83
2023-03-29T04:16:27.907Z,7.78
2023-03-29T04:19:04.430Z,7.81
2023-03-29T04:21:37.514Z,7.80
2023-03-29T04:24:11.537Z,7.79
2023-03-29T04:26:48.691Z,7.77
2023-03-29T04:29:27.112Z,7.78
2023-03-29T04:32:10.424Z,7.78
2023-03-29T04:34:50.711Z,7.78
2023-03-29T04:37:23.909Z,7.77
2023-03-29T04:40:04.928Z,7.76
2023-03-29T04:42:51.862Z,7.75
2023-03-29T04:45:25.671Z,7.75
2023-03-29T04:48:12.096Z,7.51
2023-03-29T04:50:48.743Z,7.71
2023-03-29T04:53:24.616Z,7.68
2023-03-29T04:55:59.989Z,7.72
2023-03-29T04:58:55.441Z,7.64
2023-03-29T05:01:31.740Z,7.60
2023-03-29T05:04:12.049Z,7.66
2023-03-29T05:06:54.999Z,7.69
2023-03-29T05:09:27.787Z,7.69
2023-03-29T05:12:02.396Z,7.67
2023-03-29T05:14:41.988Z,7.62
2023-03-29T05:17:15.187Z,7.54
2023-03-29T05:19:48.223Z,7.63
2023-03-29T05:22:22.248Z,7.63
2023-03-29T05:24:54.833Z,7.64
2023-03-29T05:27:30.279Z,7.51
2023-03-29T05:30:09.252Z,7.65
2023-03-29T05:32:57.970Z,7.66
2023-03-29T05:35:31.734Z,7.68
2023-03-29T05:38:06.628Z,7.64
2023-03-29T05:40:41.633Z,7.72
2023-03-29T05:43:25.042Z,7.74
2023-03-29T05:45:58.346Z,7.75
2023-03-29T05:48:32.744Z,7.76
2023-03-29T05:51:06.637Z,7.57
2023-03-29T05:53:39.677Z,7.79
2023-03-29T05:56:16.123Z,7.78
2023-03-29T05:58:54.884Z,7.67
2023-03-29T06:01:29.181Z,7.84
2023-03-29T06:04:08.485Z,7.83
2023-03-29T06:06:49.241Z,7.83
2023-03-29T06:09:22.799Z,7.83
2023-03-29T06:12:08.937Z,7.79
2023-03-29T06:14:46.376Z,7.80
2023-03-29T06:17:42.582Z,7.82
2023-03-29T06:20:17.261Z,7.84
2023-03-29T06:22:55.130Z,7.78
2023-03-29T06:25:28.575Z,7.82
2023-03-29T06:28:01.982Z,7.59
2023-03-29T06:30:36.202Z,7.83
2023-03-29T06:33:10.123Z,7.81
2023-03-29T06:35:58.090Z,7.78
2023-03-29T06:38:34.194Z,7.83
2023-03-29T06:41:18.861Z,7.84
2023-03-29T06:44:17.565Z,7.86
2023-03-29T06:47:07.736Z,7.84
2023-03-29T06:49:40.577Z,7.84
2023-03-29T06:52:36.692Z,7.84
2023-03-29T06:55:12.000Z,7.84
2023-03-29T06:57:46.507Z,7.83
2023-03-29T07:00:28.079Z,7.77
2023-03-29T07:03:21.092Z,7.80
2023-03-29T07:06:02.828Z,7.90
2023-03-29T07:08:43.491Z,7.91
2023-03-29T07:11:23.957Z,7.96
2023-03-29T07:14:05.506Z,7.97
2023-03-29T07:16:39.305Z,8.00
2023-03-29T07:19:27.839Z,8.03
2023-03-29T07:22:00.305Z,7.99
2023-03-29T07:24:56.074Z,8.02
2023-03-29T07:27:29.398Z,8.15
2023-03-29T07:30:02.284Z,8.17
2023-03-29T07:32:36.842Z,8.21
2023-03-29T07:35:26.654Z,8.24
2023-03-29T07:38:00.752Z,8.30
2023-03-29T07:40:34.334Z,8.32
2023-03-29T07:43:26.596Z,8.35
2023-03-29T07:46:01.354Z,8.33
2023-03-29T07:48:36.471Z,8.29
2023-03-29T07:51:13.380Z,8.31
2023-03-29T07:53:55.833Z,8.36
2023-03-29T07:57:01.581Z,8.36
2023-03-29T07:59:42.910Z,8.40
2023-03-29T08:02:22.681Z,8.40
2023-03-29T08:04:57.792Z,8.37
2023-03-29T08:08:05.040Z,8.40
2023-03-29T08:11:00.948Z,8.36
2023-03-29T08:14:03.693Z,8.37
2023-03-29T08:16:54.618Z,8.36
2023-03-29T08:19:28.248Z,8.33
2023-03-29T08:22:11.382Z,8.19
2023-03-29T08:25:04.688Z,8.28
2023-03-29T08:27:43.736Z,8.25
2023-03-29T08:30:19.818Z,8.24
2023-03-29T08:32:55.465Z,8.23
2023-03-29T08:35:28.556Z,8.25
2023-03-29T08:38:14.544Z,8.19
2023-03-29T08:40:50.368Z,8.26
2023-03-29T08:43:40.334Z,8.28
2023-03-29T08:46:37.428Z,8.27
2023-03-29T08:49:23.252Z,8.18
2023-03-29T08:52:01.286Z,8.18
2023-03-29T08:54:41.321Z,8.21
2023-03-29T08:57:43.492Z,8.27
2023-03-29T09:00:24.041Z,8.27
2023-03-29T09:03:00.373Z,8.27
2023-03-29T09:05:38.445Z,8.28
2023-03-29T09:08:25.686Z,8.29
2023-03-29T09:11:13.120Z,8.31
2023-03-29T09:13:57.044Z,8.24
2023-03-29T09:16:37.954Z,8.29
2023-03-29T09:19:22.777Z,8.18
2023-03-29T09:22:04.480Z,8.25
2023-03-29T09:24:54.667Z,8.31
2023-03-29T09:27:35.437Z,8.30
2023-03-29T09:30:42.877Z,8.27
2023-03-29T09:33:27.900Z,8.25
2023-03-29T09:36:20.546Z,8.29
2023-03-29T09:38:56.001Z,8.08
2023-03-29T09:41:38.408Z,8.32
2023-03-29T09:44:27.812Z,8.33
2023-03-29T09:47:13.356Z,8.36
2023-03-29T09:49:49.797Z,8.38
2023-03-29T09:52:22.915Z,8.39
2023-03-29T09:55:08.398Z,8.36
2023-03-29T09:58:01.567Z,8.38
2023-03-29T10:00:40.624Z,8.40
2023-03-29T10:03:20.107Z,8.44
2023-03-29T10:06:02.139Z,8.48
2023-03-29T10:08:38.863Z,8.43
2023-03-29T10:11:15.257Z,8.46
2023-03-29T10:13:50.768Z,8.53
2023-03-29T10:16:26.285Z,8.48
2023-03-29T10:19:16.147Z,8.51
2023-03-29T10:21:49.717Z,8.59
2023-03-29T10:24:23.870Z,8.58
2023-03-29T10:27:00.824Z,8.63
2023-03-29T10:29:37.388Z,8.49
2023-03-29T10:32:18.676Z,8.66
2023-03-29T10:34:53.858Z,8.70
2023-03-29T10:37:28.821Z,8.73
2023-03-29T10:40:02.273Z,8.77
2023-03-29T10:42:36.168Z,8.71
2023-03-29T10:45:21.133Z,8.85
2023-03-29T10:47:56.329Z,8.86
2023-03-29T10:50:35.354Z,8.88
2023-03-29T10:53:16.498Z,8.85
2023-03-29T10:56:01.021Z,8.90
2023-03-29T10:58:43.272Z,8.95
2023-03-29T11:01:21.739Z,9.00
2023-03-29T11:04:23.558Z,8.93
2023-03-29T11:07:33.569Z,9.05
2023-03-29T11:10:25.227Z,9.07
2023-03-29T11:13:05.152Z,9.01
2023-03-29T11:15:46.089Z,9.10
2023-03-29T11:18:40.723Z,9.13
2023-03-29T11:21:24.799Z,9.14
2023-03-29T11:24:21.093Z,9.14
2023-03-29T11:27:07.648Z,9.17
2023-03-29T11:29:48.127Z,9.17
2023-03-29T11:32:28.855Z,9.17
2023-03-29T11:35:14.915Z,9.15
2023-03-29T11:37:56.395Z,9.15
2023-03-29T11:40:47.722Z,9.15
2023-03-29T11:43:27.090Z,9.17
2023-03-29T11:46:06.982Z,9.15
2023-03-29T11:48:46.308Z,9.15
2023-03-29T11:51:23.946Z,9.20
2023-03-29T11:54:03.432Z,9.22
2023-03-29T11:56:42.654Z,9.26
2023-03-29T11:59:23.576Z,9.28
2023-03-29T12:02:02.992Z,9.31
2023-03-29T12:04:42.309Z,9.29
2023-03-29T12:07:18.317Z,9.29
2023-03-29T12:09:58.646Z,9.32
2023-03-29T12:12:42.068Z,9.35
2023-03-29T12:15:20.509Z,9.39
2023-03-29T12:18:03.404Z,9.42
2023-03-29T12:20:40.085Z,9.43
2023-03-29T12:23:16.431Z,9.43
2023-03-29T12:25:57.378Z,9.33
2023-03-29T12:29:07.307Z,9.41
2023-03-29T12:31:49.275Z,9.36
2023-03-29T12:34:51.709Z,9.40
2023-03-29T12:37:51.162Z,9.43
2023-03-29T12:40:44.387Z,9.42
2023-03-29T12:43:40.630Z,9.45
2023-03-29T12:46:34.725Z,9.42
2023-03-29T12:49:12.104Z,9.46
2023-03-29T12:51:45.070Z,9.45
2023-03-29T12:54:22.142Z,9.45
2023-03-29T12:56:58.860Z,9.45
2023-03-29T12:59:40.216Z,9.44
2023-03-29T13:02:35.604Z,9.49
2023-03-29T13:05:29.765Z,9.52
2023-03-29T13:08:22.714Z,9.54
2023-03-29T13:10:56.671Z,9.58
2023-03-29T13:13:34.285Z,9.60
2023-03-29T13:16:16.454Z,9.63
2023-03-29T13:18:59.303Z,9.64
2023-03-29T13:21:41.507Z,9.65
2023-03-29T13:24:37.939Z,9.59
2023-03-29T13:27:25.227Z,9.63
2023-03-29T13:30:15.691Z,9.53
2023-03-29T13:32:59.009Z,9.60
2023-03-29T13:35:42.531Z,9.58
2023-03-29T13:38:20.224Z,9.59
2023-03-29T13:41:01.797Z,9.63
2023-03-29T13:43:38.112Z,9.62
2023-03-29T13:46:22.898Z,9.57
2023-03-29T13:49:18.285Z,9.62
2023-03-29T13:52:06.253Z,9.62
2023-03-29T13:54:43.894Z,9.57
2023-03-29T13:57:19.764Z,9.60
2023-03-29T13:59:59.856Z,9.60
2023-03-29T14:02:39.323Z,9.52
2023-03-29T14:05:19.946Z,9.58
2023-03-29T14:07:54.413Z,9.61
2023-03-29T14:10:36.569Z,9.63
2023-03-29T14:13:12.736Z,9.67
2023-03-29T14:15:49.588Z,9.68
2023-03-29T14:18:25.742Z,9.71
2023-03-29T14:21:01.858Z,9.72
2023-03-29T14:23:37.564Z,9.71
2023-03-29T14:26:16.427Z,9.76
2023-03-29T14:28:50.842Z,9.75
2023-03-29T14:31:26.562Z,9.72
2023-03-29T14:34:01.024Z,9.70
2023-03-29T14:36:36.965Z,9.67
2023-03-29T14:39:14.060Z,9.73
2023-03-29T14:41:50.604Z,9.72
2023-03-29T14:44:26.084Z,9.73
2023-03-29T14:47:00.101Z,9.70
2023-03-29T14:49:33.534Z,9.71
2023-03-29T14:52:09.976Z,9.71
2023-03-29T14:54:47.455Z,9.69
2023-03-29T14:57:24.198Z,9.67
2023-03-29T15:00:01.186Z,9.42
2023-03-29T15:02:36.749Z,9.60
2023-03-29T15:05:25.660Z,9.62
2023-03-29T15:08:01.348Z,9.60
2023-03-29T15:10:36.051Z,9.57
2023-03-29T15:13:16.450Z,9.54
2023-03-29T15:15:52.848Z,9.50
2023-03-29T15:18:31.207Z,9.46
2023-03-29T15:21:05.736Z,9.48
2023-03-29T15:23:47.839Z,9.46
2023-03-29T15:26:22.440Z,9.43
2023-03-29T15:29:03.189Z,9.40
2023-03-29T15:31:38.664Z,9.42
2023-03-29T15:34:13.659Z,9.41
2023-03-29T15:36:46.587Z,9.44
2023-03-29T15:39:21.623Z,9.44
2023-03-29T15:41:56.863Z,9.42
2023-03-29T15:44:33.661Z,9.39
2023-03-29T15:47:10.309Z,9.32
2023-03-29T15:49:43.541Z,9.35
2023-03-29T15:52:16.887Z,9.31
2023-03-29T15:54:51.105Z,9.28
2023-03-29T15:57:23.787Z,9.14
2023-03-29T15:59:57.711Z,9.26
2023-03-29T16:02:31.032Z,9.20
2023-03-29T16:05:04.173Z,9.10
2023-03-29T16:07:36.978Z,9.19
2023-03-29T16:10:11.915Z,9.19
2023-03-29T16:12:45.519Z,9.20
2023-03-29T16:15:20.590Z,9.18
2023-03-29T16:17:53.694Z,9.20
2023-03-29T16:20:26.631Z,9.21
2023-03-29T16:22:59.444Z,9.20
2023-03-29T16:25:34.366Z,9.12
2023-03-29T16:28:09.520Z,9.20
2023-03-29T16:30:42.370Z,9.15
2023-03-29T16:33:15.829Z,9.18
2023-03-29T16:35:48.574Z,9.15
2023-03-29T16:38:24.090Z,9.18
2023-03-29T16:40:58.909Z,9.18
2023-03-29T16:43:31.871Z,9.06
2023-03-29T16:46:07.127Z,9.01
2023-03-29T16:48:40.294Z,9.12
2023-03-29T16:51:13.361Z,8.97
2023-03-29T16:53:49.270Z,9.08
2023-03-29T16:56:23.474Z,9.07
2023-03-29T16:58:56.684Z,9.01
2023-03-29T17:01:29.655Z,9.01
2023-03-29T17:04:03.168Z,9.06
2023-03-29T17:06:36.361Z,9.05
2023-03-29T17:09:09.914Z,9.01
2023-03-29T17:11:44.283Z,9.06
2023-03-29T17:14:17.175Z,9.02
2023-03-29T17:16:50.406Z,9.03
2023-03-29T17:19:22.982Z,9.00
2023-03-29T17:21:55.742Z,8.93
2023-03-29T17:24:28.518Z,8.91
2023-03-29T17:27:02.825Z,8.96
2023-03-29T17:29:35.772Z,8.92
2023-03-29T17:32:08.833Z,8.93
2023-03-29T17:34:41.810Z,8.84
2023-03-29T17:37:14.914Z,8.88
2023-03-29T17:39:48.298Z,8.83
2023-03-29T17:42:23.983Z,8.82
2023-03-29T17:44:57.018Z,8.77
2023-03-29T17:47:29.445Z,8.73
2023-03-29T17:50:02.508Z,8.62
2023-03-29T17:52:36.228Z,8.68
2023-03-29T17:55:14.122Z,8.61
2023-03-29T17:57:49.079Z,8.65
2023-03-29T18:00:22.498Z,8.62
2023-03-29T18:02:55.353Z,8.59
2023-03-29T18:05:28.529Z,8.56
2023-03-29T18:08:01.490Z,8.53
2023-03-29T18:10:34.600Z,8.49
2023-03-29T18:13:13.903Z,8.46
2023-03-29T18:15:47.696Z,8.40
2023-03-29T18:18:20.627Z,8.39
2023-03-29T18:20:53.802Z,8.33
2023-03-29T18:23:26.395Z,8.38
2023-03-29T18:26:00.341Z,8.33
2023-03-29T18:28:35.006Z,8.33
2023-03-29T18:31:08.345Z,8.32
2023-03-29T18:33:40.914Z,8.30
2023-03-29T18:36:14.780Z,8.24
2023-03-29T18:38:47.957Z,8.29
2023-03-29T18:41:20.754Z,8.30
2023-03-29T18:43:57.473Z,8.28
2023-03-29T18:46:33.426Z,8.25
2023-03-29T18:49:07.884Z,8.22
2023-03-29T18:51:42.247Z,8.16
2023-03-29T18:54:15.314Z,8.13
2023-03-29T18:56:48.520Z,8.12
2023-03-29T18:59:22.343Z,8.10
2023-03-29T19:01:54.993Z,8.08
2023-03-29T19:04:31.046Z,8.06
2023-03-29T19:07:04.874Z,8.06
2023-03-29T19:09:37.805Z,8.02
2023-03-29T19:12:10.970Z,8.00
2023-03-29T19:14:44.910Z,7.99
2023-03-29T19:17:17.845Z,7.97
2023-03-29T19:19:50.883Z,7.95
2023-03-29T19:22:24.134Z,7.95
2023-03-29T19:24:57.204Z,7.95
2023-03-29T19:27:29.811Z,7.89
2023-03-29T19:30:05.382Z,7.89
2023-03-29T19:32:38.565Z,7.88
2023-03-29T19:35:12.940Z,7.88
2023-03-29T19:37:45.815Z,7.88
2023-03-29T19:40:18.898Z,7.85
2023-03-29T19:42:52.248Z,7.80
2023-03-29T19:45:27.934Z,7.79
2023-03-29T19:48:03.411Z,7.80
2023-03-29T19:50:40.267Z,7.80
2023-03-29T19:53:13.455Z,7.71
2023-03-29T19:55:46.561Z,7.78
2023-03-29T19:58:19.654Z,7.77
2023-03-29T20:00:58.484Z,7.74
2023-03-29T20:03:34.378Z,7.75
2023-03-29T20:06:08.292Z,7.71
2023-03-29T20:08:41.479Z,7.69
2023-03-29T20:11:15.161Z,7.64
2023-03-29T20:13:47.692Z,7.69
2023-03-29T20:16:26.190Z,7.63
2023-03-29T20:19:02.034Z,7.62
2023-03-29T20:21:37.804Z,7.59
2023-03-29T20:24:10.824Z,7.55
2023-03-29T20:26:43.683Z,7.58
2023-03-29T20:29:16.475Z,7.57
2023-03-29T20:31:50.925Z,7.56
2023-03-29T20:34:23.422Z,7.47
2023-03-29T20:37:00.989Z,7.55
2023-03-29T20:39:33.795Z,7.54
2023-03-29T20:42:06.836Z,7.53
2023-03-29T20:44:39.352Z,7.50
2023-03-29T20:47:31.986Z,7.40
2023-03-29T20:50:08.869Z,7.46
2023-03-29T20:52:42.051Z,7.43
2023-03-29T20:55:22.312Z,7.42
2023-03-29T20:57:55.402Z,7.38
2023-03-29T21:00:30.129Z,7.36
2023-03-29T21:03:04.941Z,7.35
2023-03-29T21:05:37.930Z,7.31
2023-03-29T21:08:11.033Z,7.25
2023-03-29T21:10:45.057Z,7.25
2023-03-29T21:13:18.761Z,7.23
2023-03-29T21:15:51.355Z,7.23
2023-03-29T21:18:25.918Z,7.22
2023-03-29T21:20:58.888Z,7.22
2023-03-29T21:23:31.682Z,7.21
2023-03-29T21:26:04.910Z,7.08
2023-03-29T21:28:37.814Z,7.19
2023-03-29T21:31:10.870Z,7.19
2023-03-29T21:33:45.045Z,7.16
2023-03-29T21:36:17.960Z,7.18
2023-03-29T21:38:50.462Z,7.17
2023-03-29T21:41:23.592Z,7.16
2023-03-29T21:43:56.518Z,7.06
2023-03-29T21:46:29.022Z,7.11
2023-03-29T21:49:03.585Z,7.10
2023-03-29T21:51:35.945Z,7.06
2023-03-29T21:54:10.160Z,7.02
2023-03-29T21:56:43.160Z,6.99
2023-03-29T21:59:16.123Z,6.96
2023-03-29T22:01:50.175Z,6.95
2023-03-29T22:04:35.898Z,6.82
2023-03-29T22:07:11.190Z,6.86
2023-03-29T22:09:43.756Z,6.88
2023-03-29T22:12:17.227Z,6.85
2023-03-29T22:14:49.610Z,6.80
2023-03-29T22:17:23.102Z,6.80
2023-03-29T22:19:57.241Z,6.78
2023-03-29T22:22:30.392Z,6.74
2023-03-29T22:25:03.368Z,6.69
2023-03-29T22:27:37.021Z,6.67
2023-03-29T22:30:10.606Z,6.59
2023-03-29T22:32:43.816Z,6.60
2023-03-29T22:35:17.738Z,6.61
2023-03-29T22:37:51.104Z,6.60
2023-03-29T22:40:23.905Z,6.51
2023-03-29T22:42:56.965Z,6.55
2023-03-29T22:45:29.429Z,6.62
2023-03-29T22:48:02.349Z,6.61
2023-03-29T22:50:36.806Z,6.57
2023-03-29T22:53:10.303Z,6.56
2023-03-29T22:55:44.009Z,6.53
2023-03-29T22:58:17.102Z,6.51
2023-03-29T23:00:50.000Z,6.46
2023-03-29T23:03:23.452Z,6.46
2023-03-29T23:05:59.155Z,6.40
2023-03-29T23:08:33.555Z,6.42
2023-03-29T23:11:07.427Z,6.41
2023-03-29T23:13:40.633Z,6.38
2023-03-29T23:16:13.387Z,6.28
2023-03-29T23:18:47.138Z,6.34
2023-03-29T23:21:21.319Z,6.29
2023-03-29T23:23:54.505Z,6.31
2023-03-29T23:26:27.932Z,6.29
2023-03-29T23:29:00.807Z,6.29
2023-03-29T23:31:33.892Z,6.28
2023-03-29T23:34:06.826Z,6.27
2023-03-29T23:36:41.120Z,6.26
2023-03-29T23:39:14.485Z,6.26
2023-03-29T23:41:47.474Z,6.26
2023-03-29T23:44:20.020Z,6.22
2023-03-29T23:46:53.134Z,6.28
2023-03-29T23:49:25.544Z,6.29
2023-03-29T23:52:00.508Z,6.25
2023-03-29T23:54:33.083Z,6.27
2023-03-29T23:57:06.762Z,6.23
2023-03-29T23:59:40.215Z,6.25
